sensor_id;sensor_type;location;lat;lon;timestamp;P1;durP1;ratioP1;P2;durP2;ratioP2
21639;SDS011;10981;45.462;10.974;2022-10-17T00:01:11;90.25;;;48.38;;
21639;SDS011;10981;45.462;10.974;2022-10-17T00:03:40;87.57;;;47.15;;
21639;SDS011;10981;45.462;10.974;2022-10-17T00:06:09;96.53;;;50.40;;
21639;SDS011;10981;45.462;10.974;2022-10-17T00:08:39;92.05;;;49.42;;
21639;SDS011;10981;45.462;10.974;2022-10-17T00:11:13;94.18;;;49.38;;
21639;SDS011;10981;45.462;10.974;2022-10-17T00:13:44;93.13;;;50.40;;
21639;SDS011;10981;45.462;10.974;2022-10-17T00:16:14;105.75;;;52.38;;
21639;SDS011;10981;45.462;10.974;2022-10-17T00:18:54;90.90;;;48.78;;
21639;SDS011;10981;45.462;10.974;2022-10-17T00:21:24;93.80;;;49.05;;
21639;SDS011;10981;45.462;10.974;2022-10-17T00:23:55;90.50;;;48.10;;
21639;SDS011;10981;45.462;10.974;2022-10-17T00:26:26;94.57;;;49.45;;
21639;SDS011;10981;45.462;10.974;2022-10-17T00:28:57;91.97;;;48.42;;
21639;SDS011;10981;45.462;10.974;2022-10-17T00:31:25;93.07;;;48.28;;
21639;SDS011;10981;45.462;10.974;2022-10-17T00:33:54;95.55;;;48.28;;
21639;SDS011;10981;45.462;10.974;2022-10-17T00:36:23;90.78;;;46.30;;
21639;SDS011;10981;45.462;10.974;2022-10-17T00:38:53;99.05;;;49.60;;
21639;SDS011;10981;45.462;10.974;2022-10-17T00:41:29;92.85;;;48.42;;
21639;SDS011;10981;45.462;10.974;2022-10-17T00:44:03;89.50;;;47.35;;
21639;SDS011;10981;45.462;10.974;2022-10-17T00:46:50;86.05;;;45.35;;
21639;SDS011;10981;45.462;10.974;2022-10-17T00:49:20;89.28;;;47.22;;
21639;SDS011;10981;45.462;10.974;2022-10-17T00:51:56;84.35;;;46.63;;
21639;SDS011;10981;45.462;10.974;2022-10-17T00:54:34;83.70;;;45.50;;
21639;SDS011;10981;45.462;10.974;2022-10-17T00:57:05;91.90;;;47.08;;
21639;SDS011;10981;45.462;10.974;2022-10-17T00:59:35;89.32;;;46.25;;
21639;SDS011;10981;45.462;10.974;2022-10-17T01:02:06;91.88;;;47.55;;
21639;SDS011;10981;45.462;10.974;2022-10-17T01:04:42;90.28;;;47.75;;
21639;SDS011;10981;45.462;10.974;2022-10-17T01:07:13;89.70;;;48.27;;
21639;SDS011;10981;45.462;10.974;2022-10-17T01:09:42;86.85;;;47.10;;
21639;SDS011;10981;45.462;10.974;2022-10-17T01:14:58;87.22;;;46.67;;
21639;SDS011;10981;45.462;10.974;2022-10-17T01:17:59;98.78;;;49.58;;
21639;SDS011;10981;45.462;10.974;2022-10-17T01:26:16;90.70;;;46.00;;
21639;SDS011;10981;45.462;10.974;2022-10-17T01:29:03;96.00;;;48.30;;
21639;SDS011;10981;45.462;10.974;2022-10-17T01:32:04;97.68;;;47.65;;
21639;SDS011;10981;45.462;10.974;2022-10-17T01:34:37;94.77;;;50.30;;
21639;SDS011;10981;45.462;10.974;2022-10-17T01:37:29;94.93;;;47.38;;
21639;SDS011;10981;45.462;10.974;2022-10-17T01:43:06;95.82;;;49.47;;
21639;SDS011;10981;45.462;10.974;2022-10-17T01:45:43;95.00;;;47.20;;
21639;SDS011;10981;45.462;10.974;2022-10-17T01:48:27;88.28;;;45.92;;
21639;SDS011;10981;45.462;10.974;2022-10-17T01:51:13;89.70;;;46.63;;
21639;SDS011;10981;45.462;10.974;2022-10-17T01:53:49;87.78;;;45.80;;
21639;SDS011;10981;45.462;10.974;2022-10-17T01:56:23;97.10;;;50.67;;
21639;SDS011;10981;45.462;10.974;2022-10-17T01:59:01;92.88;;;47.53;;
21639;SDS011;10981;45.462;10.974;2022-10-17T02:01:52;93.57;;;47.08;;
21639;SDS011;10981;45.462;10.974;2022-10-17T02:04:24;96.20;;;47.50;;
21639;SDS011;10981;45.462;10.974;2022-10-17T02:06:53;93.13;;;46.78;;
21639;SDS011;10981;45.462;10.974;2022-10-17T02:09:23;89.28;;;48.58;;
21639;SDS011;10981;45.462;10.974;2022-10-17T02:14:40;91.30;;;48.22;;
21639;SDS011;10981;45.462;10.974;2022-10-17T02:20:23;97.35;;;49.22;;
21639;SDS011;10981;45.462;10.974;2022-10-17T02:23:01;98.32;;;49.33;;
21639;SDS011;10981;45.462;10.974;2022-10-17T02:25:54;97.20;;;49.55;;
21639;SDS011;10981;45.462;10.974;2022-10-17T02:31:21;92.95;;;47.63;;
21639;SDS011;10981;45.462;10.974;2022-10-17T02:34:22;92.00;;;48.78;;
21639;SDS011;10981;45.462;10.974;2022-10-17T02:36:59;99.28;;;48.65;;
21639;SDS011;10981;45.462;10.974;2022-10-17T02:39:31;92.80;;;48.15;;
21639;SDS011;10981;45.462;10.974;2022-10-17T02:42:02;96.13;;;48.83;;
21639;SDS011;10981;45.462;10.974;2022-10-17T02:44:39;91.50;;;47.42;;
21639;SDS011;10981;45.462;10.974;2022-10-17T02:50:05;84.40;;;44.67;;
21639;SDS011;10981;45.462;10.974;2022-10-17T02:52:38;90.90;;;45.75;;
21639;SDS011;10981;45.462;10.974;2022-10-17T02:55:31;86.47;;;44.70;;
21639;SDS011;10981;45.462;10.974;2022-10-17T02:58:13;94.13;;;48.45;;
21639;SDS011;10981;45.462;10.974;2022-10-17T03:00:50;90.53;;;45.40;;
21639;SDS011;10981;45.462;10.974;2022-10-17T03:03:23;93.38;;;48.53;;
21639;SDS011;10981;45.462;10.974;2022-10-17T03:05:53;92.95;;;47.65;;
21639;SDS011;10981;45.462;10.974;2022-10-17T03:08:25;89.10;;;46.55;;
21639;SDS011;10981;45.462;10.974;2022-10-17T03:10:55;90.32;;;46.75;;
21639;SDS011;10981;45.462;10.974;2022-10-17T03:13:26;92.15;;;46.97;;
21639;SDS011;10981;45.462;10.974;2022-10-17T03:15:55;88.57;;;46.75;;
21639;SDS011;10981;45.462;10.974;2022-10-17T03:18:24;96.70;;;49.28;;
21639;SDS011;10981;45.462;10.974;2022-10-17T03:20:57;92.00;;;49.35;;
21639;SDS011;10981;45.462;10.974;2022-10-17T03:23:25;90.90;;;45.97;;
21639;SDS011;10981;45.462;10.974;2022-10-17T03:25:54;95.05;;;46.90;;
21639;SDS011;10981;45.462;10.974;2022-10-17T03:28:22;90.40;;;46.72;;
21639;SDS011;10981;45.462;10.974;2022-10-17T03:30:50;90.57;;;45.95;;
21639;SDS011;10981;45.462;10.974;2022-10-17T03:33:19;92.28;;;46.63;;
21639;SDS011;10981;45.462;10.974;2022-10-17T03:35:48;82.60;;;43.88;;
21639;SDS011;10981;45.462;10.974;2022-10-17T03:38:21;90.25;;;46.13;;
21639;SDS011;10981;45.462;10.974;2022-10-17T03:40:55;95.38;;;48.15;;
21639;SDS011;10981;45.462;10.974;2022-10-17T03:43:24;94.80;;;48.95;;
21639;SDS011;10981;45.462;10.974;2022-10-17T03:45:52;97.25;;;48.08;;
21639;SDS011;10981;45.462;10.974;2022-10-17T03:48:20;89.28;;;46.83;;
21639;SDS011;10981;45.462;10.974;2022-10-17T03:50:49;92.20;;;46.08;;
21639;SDS011;10981;45.462;10.974;2022-10-17T03:53:17;86.30;;;46.25;;
21639;SDS011;10981;45.462;10.974;2022-10-17T03:55:46;94.90;;;49.45;;
21639;SDS011;10981;45.462;10.974;2022-10-17T03:58:17;90.30;;;47.58;;
21639;SDS011;10981;45.462;10.974;2022-10-17T04:00:46;95.53;;;47.58;;
21639;SDS011;10981;45.462;10.974;2022-10-17T04:03:15;95.65;;;48.92;;
21639;SDS011;10981;45.462;10.974;2022-10-17T04:05:43;97.28;;;47.70;;
21639;SDS011;10981;45.462;10.974;2022-10-17T04:08:12;96.45;;;47.55;;
21639;SDS011;10981;45.462;10.974;2022-10-17T04:11:02;88.72;;;44.47;;
21639;SDS011;10981;45.462;10.974;2022-10-17T04:13:33;86.47;;;44.40;;
21639;SDS011;10981;45.462;10.974;2022-10-17T04:16:05;83.53;;;43.72;;
21639;SDS011;10981;45.462;10.974;2022-10-17T04:18:47;94.57;;;46.55;;
21639;SDS011;10981;45.462;10.974;2022-10-17T04:21:25;90.13;;;46.85;;
21639;SDS011;10981;45.462;10.974;2022-10-17T04:23:58;95.10;;;49.85;;
21639;SDS011;10981;45.462;10.974;2022-10-17T04:26:59;94.00;;;48.90;;
21639;SDS011;10981;45.462;10.974;2022-10-17T04:29:31;90.68;;;48.10;;
21639;SDS011;10981;45.462;10.974;2022-10-17T04:32:25;94.90;;;46.58;;
21639;SDS011;10981;45.462;10.974;2022-10-17T04:35:14;94.97;;;49.08;;
21639;SDS011;10981;45.462;10.974;2022-10-17T04:37:47;94.22;;;48.13;;
21639;SDS011;10981;45.462;10.974;2022-10-17T04:40:17;95.18;;;49.22;;
21639;SDS011;10981;45.462;10.974;2022-10-17T04:42:46;87.88;;;46.33;;
21639;SDS011;10981;45.462;10.974;2022-10-17T04:45:18;93.85;;;47.10;;
21639;SDS011;10981;45.462;10.974;2022-10-17T04:47:50;91.97;;;46.38;;
21639;SDS011;10981;45.462;10.974;2022-10-17T04:50:19;84.30;;;43.38;;
21639;SDS011;10981;45.462;10.974;2022-10-17T04:53:07;90.10;;;47.03;;
21639;SDS011;10981;45.462;10.974;2022-10-17T04:55:36;88.85;;;44.83;;
21639;SDS011;10981;45.462;10.974;2022-10-17T04:58:07;90.93;;;45.17;;
21639;SDS011;10981;45.462;10.974;2022-10-17T05:00:37;92.38;;;47.30;;
21639;SDS011;10981;45.462;10.974;2022-10-17T05:03:18;97.75;;;45.67;;
21639;SDS011;10981;45.462;10.974;2022-10-17T05:05:46;93.50;;;49.05;;
21639;SDS011;10981;45.462;10.974;2022-10-17T05:08:15;92.00;;;47.90;;
21639;SDS011;10981;45.462;10.974;2022-10-17T05:10:44;89.43;;;46.20;;
21639;SDS011;10981;45.462;10.974;2022-10-17T05:13:13;90.32;;;45.58;;
21639;SDS011;10981;45.462;10.974;2022-10-17T05:15:41;94.53;;;47.22;;
21639;SDS011;10981;45.462;10.974;2022-10-17T05:18:11;91.05;;;46.28;;
21639;SDS011;10981;45.462;10.974;2022-10-17T05:20:41;84.78;;;42.78;;
21639;SDS011;10981;45.462;10.974;2022-10-17T05:23:14;86.07;;;44.78;;
21639;SDS011;10981;45.462;10.974;2022-10-17T05:25:43;91.80;;;45.05;;
21639;SDS011;10981;45.462;10.974;2022-10-17T05:28:11;92.20;;;46.85;;
21639;SDS011;10981;45.462;10.974;2022-10-17T05:30:41;94.85;;;45.35;;
21639;SDS011;10981;45.462;10.974;2022-10-17T05:33:11;94.18;;;46.75;;
21639;SDS011;10981;45.462;10.974;2022-10-17T05:35:39;99.43;;;47.38;;
21639;SDS011;10981;45.462;10.974;2022-10-17T05:38:08;91.50;;;45.58;;
21639;SDS011;10981;45.462;10.974;2022-10-17T05:40:38;88.93;;;44.88;;
21639;SDS011;10981;45.462;10.974;2022-10-17T05:43:07;99.70;;;48.88;;
21639;SDS011;10981;45.462;10.974;2022-10-17T05:45:36;96.15;;;48.10;;
21639;SDS011;10981;45.462;10.974;2022-10-17T05:48:08;101.15;;;47.60;;
21639;SDS011;10981;45.462;10.974;2022-10-17T05:50:36;94.57;;;49.53;;
21639;SDS011;10981;45.462;10.974;2022-10-17T05:53:10;96.00;;;48.35;;
21639;SDS011;10981;45.462;10.974;2022-10-17T05:55:43;98.20;;;47.38;;
21639;SDS011;10981;45.462;10.974;2022-10-17T05:58:12;97.63;;;48.58;;
21639;SDS011;10981;45.462;10.974;2022-10-17T06:01:10;90.38;;;47.00;;
21639;SDS011;10981;45.462;10.974;2022-10-17T06:03:39;97.20;;;45.50;;
21639;SDS011;10981;45.462;10.974;2022-10-17T06:06:11;90.50;;;46.58;;
21639;SDS011;10981;45.462;10.974;2022-10-17T06:08:43;99.75;;;47.75;;
21639;SDS011;10981;45.462;10.974;2022-10-17T06:11:15;99.28;;;47.95;;
21639;SDS011;10981;45.462;10.974;2022-10-17T06:13:44;99.90;;;46.83;;
21639;SDS011;10981;45.462;10.974;2022-10-17T06:16:21;96.88;;;47.72;;
21639;SDS011;10981;45.462;10.974;2022-10-17T06:18:50;101.20;;;49.40;;
21639;SDS011;10981;45.462;10.974;2022-10-17T06:21:20;102.97;;;47.80;;
21639;SDS011;10981;45.462;10.974;2022-10-17T06:23:52;100.20;;;49.40;;
21639;SDS011;10981;45.462;10.974;2022-10-17T06:26:30;98.68;;;49.85;;
21639;SDS011;10981;45.462;10.974;2022-10-17T06:28:59;97.00;;;49.30;;
21639;SDS011;10981;45.462;10.974;2022-10-17T06:31:33;88.88;;;46.45;;
21639;SDS011;10981;45.462;10.974;2022-10-17T06:34:02;89.63;;;46.67;;
21639;SDS011;10981;45.462;10.974;2022-10-17T06:36:31;97.97;;;47.55;;
21639;SDS011;10981;45.462;10.974;2022-10-17T06:39:00;95.30;;;48.92;;
21639;SDS011;10981;45.462;10.974;2022-10-17T06:41:42;98.97;;;47.80;;
21639;SDS011;10981;45.462;10.974;2022-10-17T06:44:11;98.63;;;48.30;;
21639;SDS011;10981;45.462;10.974;2022-10-17T06:47:17;100.35;;;48.20;;
21639;SDS011;10981;45.462;10.974;2022-10-17T06:49:47;104.90;;;53.60;;
21639;SDS011;10981;45.462;10.974;2022-10-17T06:52:28;105.53;;;51.90;;
21639;SDS011;10981;45.462;10.974;2022-10-17T06:55:16;105.30;;;52.33;;
21639;SDS011;10981;45.462;10.974;2022-10-17T06:58:14;118.47;;;51.75;;
21639;SDS011;10981;45.462;10.974;2022-10-17T07:01:08;134.67;;;60.20;;
21639;SDS011;10981;45.462;10.974;2022-10-17T07:03:39;153.38;;;69.13;;
21639;SDS011;10981;45.462;10.974;2022-10-17T07:06:11;147.35;;;65.45;;
21639;SDS011;10981;45.462;10.974;2022-10-17T07:08:41;150.63;;;69.20;;
21639;SDS011;10981;45.462;10.974;2022-10-17T07:11:18;156.43;;;70.57;;
21639;SDS011;10981;45.462;10.974;2022-10-17T07:13:50;153.45;;;70.07;;
21639;SDS011;10981;45.462;10.974;2022-10-17T07:16:20;158.18;;;71.25;;
21639;SDS011;10981;45.462;10.974;2022-10-17T07:18:57;143.05;;;65.93;;
21639;SDS011;10981;45.462;10.974;2022-10-17T07:21:26;146.40;;;67.93;;
21639;SDS011;10981;45.462;10.974;2022-10-17T07:23:54;137.18;;;66.65;;
21639;SDS011;10981;45.462;10.974;2022-10-17T07:26:23;144.20;;;65.22;;
21639;SDS011;10981;45.462;10.974;2022-10-17T07:28:52;146.05;;;67.72;;
21639;SDS011;10981;45.462;10.974;2022-10-17T07:31:31;134.75;;;66.25;;
21639;SDS011;10981;45.462;10.974;2022-10-17T07:33:59;133.90;;;64.75;;
21639;SDS011;10981;45.462;10.974;2022-10-17T07:36:46;139.93;;;66.50;;
21639;SDS011;10981;45.462;10.974;2022-10-17T07:39:15;140.70;;;65.78;;
21639;SDS011;10981;45.462;10.974;2022-10-17T07:41:44;137.02;;;66.05;;
21639;SDS011;10981;45.462;10.974;2022-10-17T07:44:15;148.32;;;68.78;;
21639;SDS011;10981;45.462;10.974;2022-10-17T07:46:48;141.18;;;66.13;;
21639;SDS011;10981;45.462;10.974;2022-10-17T07:49:17;130.07;;;66.97;;
21639;SDS011;10981;45.462;10.974;2022-10-17T07:51:46;131.77;;;64.97;;
21639;SDS011;10981;45.462;10.974;2022-10-17T07:54:16;123.43;;;62.28;;
21639;SDS011;10981;45.462;10.974;2022-10-17T07:56:44;130.70;;;63.33;;
21639;SDS011;10981;45.462;10.974;2022-10-17T07:59:17;124.18;;;61.30;;
21639;SDS011;10981;45.462;10.974;2022-10-17T08:01:45;122.25;;;60.78;;
21639;SDS011;10981;45.462;10.974;2022-10-17T08:04:14;134.68;;;62.53;;
21639;SDS011;10981;45.462;10.974;2022-10-17T08:06:43;115.20;;;57.72;;
21639;SDS011;10981;45.462;10.974;2022-10-17T08:09:11;119.75;;;59.80;;
21639;SDS011;10981;45.462;10.974;2022-10-17T08:11:39;113.60;;;59.17;;
21639;SDS011;10981;45.462;10.974;2022-10-17T08:14:10;110.05;;;58.15;;
21639;SDS011;10981;45.462;10.974;2022-10-17T08:16:41;125.90;;;61.00;;
21639;SDS011;10981;45.462;10.974;2022-10-17T08:19:09;113.03;;;58.75;;
21639;SDS011;10981;45.462;10.974;2022-10-17T08:21:39;117.10;;;60.22;;
21639;SDS011;10981;45.462;10.974;2022-10-17T08:24:07;111.93;;;55.28;;
21639;SDS011;10981;45.462;10.974;2022-10-17T08:26:35;105.72;;;54.95;;
21639;SDS011;10981;45.462;10.974;2022-10-17T08:29:13;92.38;;;52.67;;
21639;SDS011;10981;45.462;10.974;2022-10-17T08:31:42;97.28;;;53.22;;
21639;SDS011;10981;45.462;10.974;2022-10-17T08:34:15;88.40;;;50.37;;
21639;SDS011;10981;45.462;10.974;2022-10-17T08:36:43;97.00;;;51.67;;
21639;SDS011;10981;45.462;10.974;2022-10-17T08:39:11;95.82;;;52.60;;
21639;SDS011;10981;45.462;10.974;2022-10-17T08:47:00;104.93;;;54.08;;
21639;SDS011;10981;45.462;10.974;2022-10-17T08:53:01;91.65;;;53.83;;
21639;SDS011;10981;45.462;10.974;2022-10-17T08:55:28;100.13;;;54.30;;
21639;SDS011;10981;45.462;10.974;2022-10-17T08:58:11;100.25;;;53.90;;
21639;SDS011;10981;45.462;10.974;2022-10-17T09:00:48;109.07;;;60.13;;
21639;SDS011;10981;45.462;10.974;2022-10-17T09:20:00;106.85;;;55.88;;
21639;SDS011;10981;45.462;10.974;2022-10-17T09:22:35;103.25;;;55.63;;
21639;SDS011;10981;45.462;10.974;2022-10-17T09:25:13;100.32;;;53.72;;
21639;SDS011;10981;45.462;10.974;2022-10-17T09:30:19;105.13;;;55.78;;
21639;SDS011;10981;45.462;10.974;2022-10-17T09:33:09;100.93;;;55.35;;
21639;SDS011;10981;45.462;10.974;2022-10-17T09:35:59;101.90;;;57.72;;
21639;SDS011;10981;45.462;10.974;2022-10-17T09:38:33;100.32;;;54.50;;
21639;SDS011;10981;45.462;10.974;2022-10-17T09:41:20;102.78;;;54.78;;
21639;SDS011;10981;45.462;10.974;2022-10-17T09:47:08;98.35;;;55.25;;
21639;SDS011;10981;45.462;10.974;2022-10-17T09:49:45;95.82;;;54.30;;
21639;SDS011;10981;45.462;10.974;2022-10-17T09:52:33;99.97;;;56.28;;
21639;SDS011;10981;45.462;10.974;2022-10-17T09:58:05;100.68;;;55.40;;
21639;SDS011;10981;45.462;10.974;2022-10-17T10:00:36;93.28;;;54.40;;
21639;SDS011;10981;45.462;10.974;2022-10-17T10:03:13;99.43;;;54.63;;
21639;SDS011;10981;45.462;10.974;2022-10-17T10:06:03;102.65;;;54.35;;
21639;SDS011;10981;45.462;10.974;2022-10-17T10:11:22;94.55;;;54.63;;
21639;SDS011;10981;45.462;10.974;2022-10-17T10:13:52;98.88;;;53.70;;
21639;SDS011;10981;45.462;10.974;2022-10-17T10:16:30;96.40;;;55.20;;
21639;SDS011;10981;45.462;10.974;2022-10-17T10:18:59;92.00;;;51.53;;
21639;SDS011;10981;45.462;10.974;2022-10-17T10:21:34;81.90;;;49.25;;
21639;SDS011;10981;45.462;10.974;2022-10-17T10:24:20;86.50;;;48.63;;
21639;SDS011;10981;45.462;10.974;2022-10-17T10:26:56;92.72;;;51.97;;
21639;SDS011;10981;45.462;10.974;2022-10-17T10:32:09;91.80;;;52.00;;
21639;SDS011;10981;45.462;10.974;2022-10-17T10:34:54;91.47;;;52.10;;
21639;SDS011;10981;45.462;10.974;2022-10-17T10:37:25;94.93;;;53.58;;
21639;SDS011;10981;45.462;10.974;2022-10-17T10:42:50;96.00;;;54.22;;
21639;SDS011;10981;45.462;10.974;2022-10-17T10:45:25;95.95;;;53.45;;
21639;SDS011;10981;45.462;10.974;2022-10-17T10:48:21;93.73;;;53.43;;
21639;SDS011;10981;45.462;10.974;2022-10-17T11:04:30;92.63;;;52.15;;
21639;SDS011;10981;45.462;10.974;2022-10-17T11:07:12;86.90;;;50.75;;
21639;SDS011;10981;45.462;10.974;2022-10-17T11:10:09;84.15;;;50.45;;
21639;SDS011;10981;45.462;10.974;2022-10-17T11:18:25;84.68;;;50.50;;
21639;SDS011;10981;45.462;10.974;2022-10-17T11:23:46;75.70;;;46.97;;
21639;SDS011;10981;45.462;10.974;2022-10-17T11:26:37;80.28;;;47.40;;
21639;SDS011;10981;45.462;10.974;2022-10-17T11:29:12;81.47;;;48.88;;
21639;SDS011;10981;45.462;10.974;2022-10-17T11:31:42;77.38;;;47.25;;
21639;SDS011;10981;45.462;10.974;2022-10-17T11:34:28;78.10;;;44.38;;
21639;SDS011;10981;45.462;10.974;2022-10-17T11:37:04;80.15;;;47.95;;
21639;SDS011;10981;45.462;10.974;2022-10-17T11:40:15;79.82;;;48.35;;
21639;SDS011;10981;45.462;10.974;2022-10-17T11:43:05;77.15;;;48.08;;
21639;SDS011;10981;45.462;10.974;2022-10-17T11:45:46;75.50;;;46.33;;
21639;SDS011;10981;45.462;10.974;2022-10-17T11:51:36;86.23;;;49.50;;
21639;SDS011;10981;45.462;10.974;2022-10-17T11:54:29;75.45;;;46.80;;
21639;SDS011;10981;45.462;10.974;2022-10-17T12:08:29;77.18;;;48.90;;
21639;SDS011;10981;45.462;10.974;2022-10-17T12:13:54;83.95;;;49.30;;
21639;SDS011;10981;45.462;10.974;2022-10-17T12:19:12;80.05;;;51.80;;
21639;SDS011;10981;45.462;10.974;2022-10-17T12:24:40;86.57;;;50.08;;
21639;SDS011;10981;45.462;10.974;2022-10-17T12:28:12;86.35;;;50.30;;
21639;SDS011;10981;45.462;10.974;2022-10-17T12:32:55;79.05;;;49.35;;
21639;SDS011;10981;45.462;10.974;2022-10-17T12:35:35;79.03;;;49.25;;
21639;SDS011;10981;45.462;10.974;2022-10-17T12:40:47;89.90;;;53.03;;
21639;SDS011;10981;45.462;10.974;2022-10-17T12:45:54;87.30;;;52.33;;
21639;SDS011;10981;45.462;10.974;2022-10-17T12:54:00;76.63;;;48.85;;
21639;SDS011;10981;45.462;10.974;2022-10-17T12:56:45;78.57;;;48.92;;
21639;SDS011;10981;45.462;10.974;2022-10-17T12:59:23;81.03;;;51.00;;
21639;SDS011;10981;45.462;10.974;2022-10-17T13:01:55;82.22;;;52.90;;
21639;SDS011;10981;45.462;10.974;2022-10-17T13:04:29;82.53;;;51.25;;
21639;SDS011;10981;45.462;10.974;2022-10-17T13:07:02;79.13;;;49.47;;
21639;SDS011;10981;45.462;10.974;2022-10-17T13:12:02;79.55;;;50.45;;
21639;SDS011;10981;45.462;10.974;2022-10-17T13:14:37;72.97;;;48.72;;
21639;SDS011;10981;45.462;10.974;2022-10-17T13:17:19;80.50;;;48.25;;
21639;SDS011;10981;45.462;10.974;2022-10-17T13:19:54;75.38;;;48.05;;
21639;SDS011;10981;45.462;10.974;2022-10-17T13:22:23;76.80;;;47.38;;
21639;SDS011;10981;45.462;10.974;2022-10-17T13:25:08;76.85;;;48.35;;
21639;SDS011;10981;45.462;10.974;2022-10-17T13:27:41;76.80;;;47.42;;
21639;SDS011;10981;45.462;10.974;2022-10-17T13:30:20;80.82;;;47.97;;
21639;SDS011;10981;45.462;10.974;2022-10-17T13:32:57;80.72;;;49.63;;
21639;SDS011;10981;45.462;10.974;2022-10-17T13:35:30;79.85;;;49.65;;
21639;SDS011;10981;45.462;10.974;2022-10-17T13:38:25;74.47;;;48.10;;
21639;SDS011;10981;45.462;10.974;2022-10-17T13:40:55;66.47;;;43.78;;
21639;SDS011;10981;45.462;10.974;2022-10-17T13:43:44;69.47;;;42.45;;
21639;SDS011;10981;45.462;10.974;2022-10-17T13:46:22;72.05;;;45.95;;
21639;SDS011;10981;45.462;10.974;2022-10-17T13:49:10;72.07;;;44.80;;
21639;SDS011;10981;45.462;10.974;2022-10-17T13:51:52;69.85;;;45.50;;
21639;SDS011;10981;45.462;10.974;2022-10-17T13:54:32;70.32;;;46.45;;
21639;SDS011;10981;45.462;10.974;2022-10-17T13:57:25;68.05;;;43.92;;
21639;SDS011;10981;45.462;10.974;2022-10-17T14:00:38;74.82;;;44.70;;
21639;SDS011;10981;45.462;10.974;2022-10-17T14:02:48;74.00;;;46.95;;
21639;SDS011;10981;45.462;10.974;2022-10-17T14:05:17;71.95;;;47.10;;
21639;SDS011;10981;45.462;10.974;2022-10-17T14:07:54;68.57;;;43.10;;
21639;SDS011;10981;45.462;10.974;2022-10-17T14:13:29;65.25;;;42.17;;
21639;SDS011;10981;45.462;10.974;2022-10-17T14:16:02;73.10;;;46.20;;
21639;SDS011;10981;45.462;10.974;2022-10-17T14:18:34;67.90;;;42.83;;
21639;SDS011;10981;45.462;10.974;2022-10-17T14:21:04;65.93;;;40.08;;
21639;SDS011;10981;45.462;10.974;2022-10-17T14:24:11;63.30;;;40.75;;
21639;SDS011;10981;45.462;10.974;2022-10-17T14:26:55;66.32;;;42.60;;
21639;SDS011;10981;45.462;10.974;2022-10-17T14:29:29;68.28;;;42.90;;
21639;SDS011;10981;45.462;10.974;2022-10-17T14:32:00;69.72;;;42.47;;
21639;SDS011;10981;45.462;10.974;2022-10-17T14:34:33;66.90;;;41.10;;
21639;SDS011;10981;45.462;10.974;2022-10-17T14:37:23;66.05;;;40.10;;
21639;SDS011;10981;45.462;10.974;2022-10-17T14:40:13;71.00;;;43.22;;
21639;SDS011;10981;45.462;10.974;2022-10-17T14:42:43;66.45;;;41.80;;
21639;SDS011;10981;45.462;10.974;2022-10-17T14:45:24;67.50;;;41.55;;
21639;SDS011;10981;45.462;10.974;2022-10-17T14:48:11;75.07;;;43.53;;
21639;SDS011;10981;45.462;10.974;2022-10-17T14:53:35;59.95;;;38.90;;
21639;SDS011;10981;45.462;10.974;2022-10-17T14:56:20;60.05;;;39.63;;
21639;SDS011;10981;45.462;10.974;2022-10-17T14:58:50;55.80;;;36.92;;
21639;SDS011;10981;45.462;10.974;2022-10-17T15:01:19;59.20;;;37.28;;
21639;SDS011;10981;45.462;10.974;2022-10-17T15:03:47;67.25;;;40.08;;
21639;SDS011;10981;45.462;10.974;2022-10-17T15:06:20;60.92;;;36.63;;
21639;SDS011;10981;45.462;10.974;2022-10-17T15:09:14;59.72;;;34.40;;
21639;SDS011;10981;45.462;10.974;2022-10-17T15:11:42;57.22;;;35.17;;
21639;SDS011;10981;45.462;10.974;2022-10-17T15:14:10;55.35;;;34.97;;
21639;SDS011;10981;45.462;10.974;2022-10-17T15:16:39;56.65;;;35.88;;
21639;SDS011;10981;45.462;10.974;2022-10-17T15:19:07;56.00;;;35.33;;
21639;SDS011;10981;45.462;10.974;2022-10-17T15:21:38;53.78;;;33.72;;
21639;SDS011;10981;45.462;10.974;2022-10-17T15:24:13;56.08;;;34.80;;
21639;SDS011;10981;45.462;10.974;2022-10-17T15:26:41;50.17;;;32.72;;
21639;SDS011;10981;45.462;10.974;2022-10-17T15:29:13;50.55;;;31.83;;
21639;SDS011;10981;45.462;10.974;2022-10-17T15:31:42;51.70;;;32.25;;
21639;SDS011;10981;45.462;10.974;2022-10-17T15:34:10;50.38;;;30.70;;
21639;SDS011;10981;45.462;10.974;2022-10-17T15:36:39;46.17;;;29.85;;
21639;SDS011;10981;45.462;10.974;2022-10-17T15:39:08;48.33;;;30.38;;
21639;SDS011;10981;45.462;10.974;2022-10-17T15:41:36;50.63;;;31.13;;
21639;SDS011;10981;45.462;10.974;2022-10-17T15:44:05;50.75;;;29.20;;
21639;SDS011;10981;45.462;10.974;2022-10-17T15:46:33;46.15;;;28.38;;
21639;SDS011;10981;45.462;10.974;2022-10-17T15:49:03;50.30;;;30.35;;
21639;SDS011;10981;45.462;10.974;2022-10-17T15:51:36;47.45;;;27.70;;
21639;SDS011;10981;45.462;10.974;2022-10-17T15:54:05;50.70;;;29.75;;
21639;SDS011;10981;45.462;10.974;2022-10-17T15:56:37;49.53;;;29.15;;
21639;SDS011;10981;45.462;10.974;2022-10-17T15:59:15;48.25;;;29.65;;
21639;SDS011;10981;45.462;10.974;2022-10-17T16:01:47;50.08;;;29.15;;
21639;SDS011;10981;45.462;10.974;2022-10-17T16:04:16;49.10;;;28.80;;
21639;SDS011;10981;45.462;10.974;2022-10-17T16:06:44;50.80;;;28.75;;
21639;SDS011;10981;45.462;10.974;2022-10-17T16:09:13;52.63;;;31.73;;
21639;SDS011;10981;45.462;10.974;2022-10-17T16:11:41;51.42;;;30.20;;
21639;SDS011;10981;45.462;10.974;2022-10-17T16:14:14;49.25;;;30.42;;
21639;SDS011;10981;45.462;10.974;2022-10-17T16:16:44;48.90;;;29.90;;
21639;SDS011;10981;45.462;10.974;2022-10-17T16:19:12;50.08;;;30.13;;
21639;SDS011;10981;45.462;10.974;2022-10-17T16:21:40;52.38;;;31.85;;
21639;SDS011;10981;45.462;10.974;2022-10-17T16:24:11;51.40;;;31.48;;
21639;SDS011;10981;45.462;10.974;2022-10-17T16:26:40;49.42;;;29.95;;
21639;SDS011;10981;45.462;10.974;2022-10-17T16:29:11;55.70;;;30.50;;
21639;SDS011;10981;45.462;10.974;2022-10-17T16:31:41;51.50;;;28.25;;
21639;SDS011;10981;45.462;10.974;2022-10-17T16:34:11;54.20;;;30.52;;
21639;SDS011;10981;45.462;10.974;2022-10-17T16:36:41;50.70;;;30.25;;
21639;SDS011;10981;45.462;10.974;2022-10-17T16:39:09;46.38;;;29.13;;
21639;SDS011;10981;45.462;10.974;2022-10-17T16:41:37;49.03;;;30.45;;
21639;SDS011;10981;45.462;10.974;2022-10-17T16:44:06;54.80;;;29.73;;
21639;SDS011;10981;45.462;10.974;2022-10-17T16:46:41;66.75;;;31.17;;
21639;SDS011;10981;45.462;10.974;2022-10-17T16:49:09;51.17;;;31.70;;
21639;SDS011;10981;45.462;10.974;2022-10-17T16:51:38;50.10;;;31.02;;
21639;SDS011;10981;45.462;10.974;2022-10-17T16:54:07;60.00;;;34.97;;
21639;SDS011;10981;45.462;10.974;2022-10-17T16:56:35;55.00;;;34.25;;
21639;SDS011;10981;45.462;10.974;2022-10-17T16:59:03;61.15;;;36.13;;
21639;SDS011;10981;45.462;10.974;2022-10-17T17:01:32;63.75;;;37.03;;